Wan Hai 510 — 9VJJ8 — position and weather

sailwx.info

Track history (hours):
 
Tides and Currents Weather Stations Pressure Air Temp Water Temp Dewpoint Dewpoint Depression Visibility Wind Speed Wind Dir Waves Ship Positions

Wan Hai 510

Last reported at 2015-Mar-22 22:33 UTC. Time now 2015-Mar-30 04:28 UTC.
Position N 01°10' E 103°47'.

Length 269 m; draft 12.1 m.

Type: Cargo ship. MMSI: 565741000.

Date/timePositionNaut miles runAvg speedWind from/ knotsBaromVisibWave heightAir tempDewpointWater temp
2015-Mar-22 22:33N 01°10' E 103°47'6 6.2
2015-Mar-22 21:33N 01°15' E 103°51'1 0.9
2015-Mar-22 20:32N 01°16' E 103°50'0 0.0
2015-Mar-22 19:29N 01°16' E 103°50'0 0.0
2015-Mar-22 18:29N 01°16' E 103°50'0 0.0
2015-Mar-22 17:32N 01°16' E 103°50'0 0.0
2015-Mar-22 16:26N 01°16' E 103°50'0 0.0
2015-Mar-22 15:29N 01°16' E 103°50'0 0.0
2015-Mar-22 14:32N 01°16' E 103°50'0 0.0
2015-Mar-22 13:32N 01°16' E 103°50'0 0.0
2015-Mar-22 12:32N 01°16' E 103°50'0 0.0
2015-Mar-22 11:32N 01°16' E 103°50'0 0.0
2015-Mar-22 10:32N 01°16' E 103°50'1 1.1
2015-Mar-22 09:33N 01°15' E 103°51'6 5.9
2015-Mar-22 08:33N 01°15' E 103°57'  
2015-Mar-19 04:06N 22°13' E 114°10'712.9
2015-Mar-19 03:34N 22°18' E 114°06'1211.9
2015-Mar-19 02:33N 22°23' E 113°54'4 4.0
2015-Mar-19 01:33N 22°27' E 113°54'0 0.0
2015-Mar-19 00:29N 22°27' E 113°54'0 0.0
2015-Mar-18 23:23N 22°27' E 113°54'0 0.0
2015-Mar-18 22:29N 22°27' E 113°54'0 0.0
2015-Mar-18 21:29N 22°27' E 113°54'0 0.0
2015-Mar-18 20:23N 22°27' E 113°54'0 0.0
2015-Mar-18 19:29N 22°27' E 113°54'0 0.0
2015-Mar-18 18:29N 22°27' E 113°54'0 0.0
2015-Mar-18 17:29N 22°27' E 113°54'0 0.0
2015-Mar-18 16:29N 22°27' E 113°54'0 0.0
2015-Mar-18 15:33N 22°27' E 113°54'8 6.9
2015-Mar-18 14:26N 22°21' E 113°58'8 9.1
2015-Mar-18 13:33N 22°19' E 114°07'1 1.1
2015-Mar-18 12:31N 22°20' E 114°07'0 0.0
2015-Mar-18 11:32N 22°20' E 114°07'0 0.0
2015-Mar-18 10:23N 22°20' E 114°07'0 0.0
2015-Mar-18 09:29N 22°20' E 114°07'0 0.0
2015-Mar-18 08:26N 22°20' E 114°07'0 0.0
2015-Mar-18 07:32N 22°20' E 114°07'0 0.0
2015-Mar-18 06:32N 22°20' E 114°07'0 0.0
2015-Mar-18 05:32N 22°20' E 114°07'0 0.0
2015-Mar-18 04:14N 22°20' E 114°07'0 0.0
2015-Mar-18 03:32N 22°20' E 114°07'0 0.0
2015-Mar-18 02:32N 22°20' E 114°07'0 0.0
2015-Mar-18 01:26N 22°20' E 114°07'0 0.0
2015-Mar-18 00:32N 22°20' E 114°07'0 0.2
2015-Mar-17 23:33N 22°20' E 114°07'8 7.8
2015-Mar-17 22:33N 22°13' E 114°10'1010.3
2015-Mar-17 21:33N 22°05' E 114°17'0 0.1
2015-Mar-17 20:31N 22°05' E 114°17'0 0.0
2015-Mar-17 19:22N 22°05' E 114°17'0 0.1
2015-Mar-17 18:10N 22°05' E 114°17'0 0.1
2015-Mar-17 17:31N 22°05' E 114°17'0 0.1
2015-Mar-17 16:31N 22°05' E 114°17'0 0.0
2015-Mar-17 15:31N 22°05' E 114°17'0 0.0
2015-Mar-17 14:28N 22°05' E 114°17'0 0.1
2015-Mar-17 12:25N 22°05' E 114°17'0 0.0
2015-Mar-17 11:10N 22°05' E 114°17'4 6.9
2015-Mar-17 10:32N 22°06' E 114°22'1514.5
2015-Mar-17 09:30N 22°08' E 114°38'29215.1
2015-Mar-16 14:08N 22°32' E 119°53'814.6
2015-Mar-16 13:34N 22°32' E 120°02'1212.2
2015-Mar-16 12:33N 22°33' E 120°15'3 3.2
2015-Mar-16 11:33N 22°35' E 120°18'0 0.0
2015-Mar-16 10:34N 22°35' E 120°18'0 0.0
2015-Mar-16 09:31N 22°35' E 120°18'0 0.1
2015-Mar-16 08:25N 22°35' E 120°18'0 0.1
2015-Mar-16 07:31N 22°35' E 120°18'0 0.0
2015-Mar-16 06:31N 22°35' E 120°18'0 0.0
2015-Mar-16 05:31N 22°35' E 120°18'0 0.0
2015-Mar-16 04:31N 22°35' E 120°18'0 0.0
2015-Mar-16 03:31N 22°35' E 120°18'0 0.0
2015-Mar-16 02:31N 22°35' E 120°18'0 0.0
2015-Mar-16 01:31N 22°35' E 120°18'0 0.0
2015-Mar-16 00:31N 22°35' E 120°18'0 0.0
2015-Mar-15 23:13N 22°35' E 120°18'0 0.0
2015-Mar-15 22:31N 22°35' E 120°18'0 0.0
2015-Mar-15 21:31N 22°35' E 120°18'0 0.0
2015-Mar-15 20:31N 22°35' E 120°18'0 0.0
2015-Mar-15 19:31N 22°35' E 120°18'0 0.0
2015-Mar-15 18:31N 22°35' E 120°18'0 0.0
2015-Mar-15 17:31N 22°35' E 120°18'0 0.0
2015-Mar-15 16:31N 22°35' E 120°18'0 0.0
2015-Mar-15 15:31N 22°35' E 120°18'0 0.0
2015-Mar-15 14:25N 22°35' E 120°18'0 0.1
2015-Mar-15 13:31N 22°35' E 120°18'0 0.1
2015-Mar-15 12:31N 22°35' E 120°18'0 0.0
2015-Mar-15 11:31N 22°35' E 120°18'0 0.0
2015-Mar-15 10:31N 22°35' E 120°18'0 0.0
2015-Mar-15 09:13N 22°35' E 120°18'0 0.1
2015-Mar-15 08:25N 22°35' E 120°18'0 0.1
2015-Mar-15 07:28N 22°35' E 120°18'0 0.1
2015-Mar-15 06:28N 22°35' E 120°18'0 0.3
2015-Mar-15 05:33N 22°34' E 120°18'4 3.6
2015-Mar-15 04:33N 22°32' E 120°15'8 8.2
2015-Mar-15 03:33N 22°26' E 120°10'1110.7
2015-Mar-15 02:33N 22°17' E 120°03'1717.1
2015-Mar-15 01:32N 22°03' E 119°52'  
Track history (hours):
 
Tides and Currents Weather Stations Pressure Air Temp Water Temp Dewpoint Dewpoint Depression Visibility Wind Speed Wind Dir Waves Ship Positions

Wan Hai 510

Last reported at 2015-Mar-22 22:33 UTC. Time now 2015-Mar-30 04:28 UTC.
Position N 01°10' E 103°47'.

Length 269 m; draft 12.1 m.

Type: Cargo ship. MMSI: 565741000.

Date/timePositionNaut miles runAvg speedWind from/ knotsBaromVisibWave heightAir tempDewpointWater temp
2015-Mar-22 22:33N 01°10' E 103°47'6 6.2
2015-Mar-22 21:33N 01°15' E 103°51'1 0.9
2015-Mar-22 20:32N 01°16' E 103°50'0 0.0
2015-Mar-22 19:29N 01°16' E 103°50'0 0.0
2015-Mar-22 18:29N 01°16' E 103°50'0 0.0
2015-Mar-22 17:32N 01°16' E 103°50'0 0.0
2015-Mar-22 16:26N 01°16' E 103°50'0 0.0
2015-Mar-22 15:29N 01°16' E 103°50'0 0.0
2015-Mar-22 14:32N 01°16' E 103°50'0 0.0
2015-Mar-22 13:32N 01°16' E 103°50'0 0.0
2015-Mar-22 12:32N 01°16' E 103°50'0 0.0
2015-Mar-22 11:32N 01°16' E 103°50'0 0.0
2015-Mar-22 10:32N 01°16' E 103°50'1 1.1
2015-Mar-22 09:33N 01°15' E 103°51'6 5.9
2015-Mar-22 08:33N 01°15' E 103°57'  
2015-Mar-19 04:06N 22°13' E 114°10'712.9
2015-Mar-19 03:34N 22°18' E 114°06'1211.9
2015-Mar-19 02:33N 22°23' E 113°54'4 4.0
2015-Mar-19 01:33N 22°27' E 113°54'0 0.0
2015-Mar-19 00:29N 22°27' E 113°54'0 0.0
2015-Mar-18 23:23N 22°27' E 113°54'0 0.0
2015-Mar-18 22:29N 22°27' E 113°54'0 0.0
2015-Mar-18 21:29N 22°27' E 113°54'0 0.0
2015-Mar-18 20:23N 22°27' E 113°54'0 0.0
2015-Mar-18 19:29N 22°27' E 113°54'0 0.0
2015-Mar-18 18:29N 22°27' E 113°54'0 0.0
2015-Mar-18 17:29N 22°27' E 113°54'0 0.0
2015-Mar-18 16:29N 22°27' E 113°54'0 0.0
2015-Mar-18 15:33N 22°27' E 113°54'8 6.9
2015-Mar-18 14:26N 22°21' E 113°58'8 9.1
2015-Mar-18 13:33N 22°19' E 114°07'1 1.1
2015-Mar-18 12:31N 22°20' E 114°07'0 0.0
2015-Mar-18 11:32N 22°20' E 114°07'0 0.0
2015-Mar-18 10:23N 22°20' E 114°07'0 0.0
2015-Mar-18 09:29N 22°20' E 114°07'0 0.0
2015-Mar-18 08:26N 22°20' E 114°07'0 0.0
2015-Mar-18 07:32N 22°20' E 114°07'0 0.0
2015-Mar-18 06:32N 22°20' E 114°07'0 0.0
2015-Mar-18 05:32N 22°20' E 114°07'0 0.0
2015-Mar-18 04:14N 22°20' E 114°07'0 0.0
2015-Mar-18 03:32N 22°20' E 114°07'0 0.0
2015-Mar-18 02:32N 22°20' E 114°07'0 0.0
2015-Mar-18 01:26N 22°20' E 114°07'0 0.0
2015-Mar-18 00:32N 22°20' E 114°07'0 0.2
2015-Mar-17 23:33N 22°20' E 114°07'8 7.8
2015-Mar-17 22:33N 22°13' E 114°10'1010.3
2015-Mar-17 21:33N 22°05' E 114°17'0 0.1
2015-Mar-17 20:31N 22°05' E 114°17'0 0.0
2015-Mar-17 19:22N 22°05' E 114°17'0 0.1
2015-Mar-17 18:10N 22°05' E 114°17'0 0.1
2015-Mar-17 17:31N 22°05' E 114°17'0 0.1
2015-Mar-17 16:31N 22°05' E 114°17'0 0.0
2015-Mar-17 15:31N 22°05' E 114°17'0 0.0
2015-Mar-17 14:28N 22°05' E 114°17'0 0.1
2015-Mar-17 12:25N 22°05' E 114°17'0 0.0
2015-Mar-17 11:10N 22°05' E 114°17'4 6.9
2015-Mar-17 10:32N 22°06' E 114°22'1514.5
2015-Mar-17 09:30N 22°08' E 114°38'29215.1
2015-Mar-16 14:08N 22°32' E 119°53'814.6
2015-Mar-16 13:34N 22°32' E 120°02'1212.2
2015-Mar-16 12:33N 22°33' E 120°15'3 3.2
2015-Mar-16 11:33N 22°35' E 120°18'0 0.0
2015-Mar-16 10:34N 22°35' E 120°18'0 0.0
2015-Mar-16 09:31N 22°35' E 120°18'0 0.1
2015-Mar-16 08:25N 22°35' E 120°18'0 0.1
2015-Mar-16 07:31N 22°35' E 120°18'0 0.0
2015-Mar-16 06:31N 22°35' E 120°18'0 0.0
2015-Mar-16 05:31N 22°35' E 120°18'0 0.0
2015-Mar-16 04:31N 22°35' E 120°18'0 0.0
2015-Mar-16 03:31N 22°35' E 120°18'0 0.0
2015-Mar-16 02:31N 22°35' E 120°18'0 0.0
2015-Mar-16 01:31N 22°35' E 120°18'0 0.0
2015-Mar-16 00:31N 22°35' E 120°18'0 0.0
2015-Mar-15 23:13N 22°35' E 120°18'0 0.0
2015-Mar-15 22:31N 22°35' E 120°18'0 0.0
2015-Mar-15 21:31N 22°35' E 120°18'0 0.0
2015-Mar-15 20:31N 22°35' E 120°18'0 0.0
2015-Mar-15 19:31N 22°35' E 120°18'0 0.0
2015-Mar-15 18:31N 22°35' E 120°18'0 0.0
2015-Mar-15 17:31N 22°35' E 120°18'0 0.0
2015-Mar-15 16:31N 22°35' E 120°18'0 0.0
2015-Mar-15 15:31N 22°35' E 120°18'0 0.0
2015-Mar-15 14:25N 22°35' E 120°18'0 0.1
2015-Mar-15 13:31N 22°35' E 120°18'0 0.1
2015-Mar-15 12:31N 22°35' E 120°18'0 0.0
2015-Mar-15 11:31N 22°35' E 120°18'0 0.0
2015-Mar-15 10:31N 22°35' E 120°18'0 0.0
2015-Mar-15 09:13N 22°35' E 120°18'0 0.1
2015-Mar-15 08:25N 22°35' E 120°18'0 0.1
2015-Mar-15 07:28N 22°35' E 120°18'0 0.1
2015-Mar-15 06:28N 22°35' E 120°18'0 0.3
2015-Mar-15 05:33N 22°34' E 120°18'4 3.6
2015-Mar-15 04:33N 22°32' E 120°15'8 8.2
2015-Mar-15 03:33N 22°26' E 120°10'1110.7
2015-Mar-15 02:33N 22°17' E 120°03'1717.1
2015-Mar-15 01:32N 22°03' E 119°52'  

Dump ship's entire track history